Tiempo atmosférico en la estación meteorológica de Teruel, Teruel (900 m.)



Fecha
DESCASC
Temp. máxima en grados centígrados (hora)
DESCASC
Temp. mínima en grados centígrados (hora)
DESCASC
Temp. media en grados centígrados
DESCASC
Racha de viento máxima en m/sg (hora)
DESCASC
Velocidad máxima media en intervalos de 10 minutos(hora)
DESCASC
Precipitaciones diarias en mm
DESCASC
Precipitaciones de 00:00 a 06:00 en mm
DESCASC
Precipitaciones de 06:00 a 12:00 en mm
DESCASC
Precipitaciones de 12:00 a 18:00 en mm
DESCASC
Precipitaciones de 18:00 a 24:00 en mm
DESCASC
16-06-2019 27.2 (14:30) 7.6 (07:00) 17.4 8.33 (17:20) 4.44 (14:30) 0 0 0 0 0
15-06-2019 27.1 (18:50) 6.1 (07:20) 16.6 7.5 (22:50) 3.06 (23:00) 0 0 0 0 0
14-06-2019 27.4 (15:50) 11.3 (06:20) 19.3 11.39 (17:00) 6.11 (16:50) 4 0 4 0 0
13-06-2019 24.4 (16:20) 9.2 (00:00) 16.8 7.5 (14:50) 3.61 (16:20) 0 0 0 0 0
12-06-2019 25.1 (17:10) 0.7 (00:00) 12.9 9.72 (15:50) 4.44 (17:20) 0 0 0 0 0
11-06-2019 15 (00:00) 7.6 (00:00) 11.3 9.17 (18:40) 4.17 (18:40) 0.2 0 0 0.2 0
10-06-2019 25.3 (15:20) 9.2 (00:00) 17.2 6.67 (23:00) 3.33 (23:00) 0 0 0 0 0
09-06-2019 29.6 (17:30) 11.1 (00:00) 20.4 9.17 (18:00) 5 (18:00) 0 0 0 0 0
08-06-2019 25.3 (15:20) 6.2 (00:00) 15.7 9.72 (16:50) 3.61 (16:20) 0 0 0 0 0
07-06-2019 25.1 (17:20) 8.3 (00:00) 16.7 9.72 (17:10) 4.72 (11:30) 0 0 0 0 0
06-06-2019 24.9 (16:20) 4.5 (00:00) 14.7 13.89 (15:10) 6.11 (15:10) 0 0 0 0 0
05-06-2019 19.5 (17:00) 11.2 (00:00) 15.3 11.67 (13:00) 6.11 (13:10) 0 0 0 0 0
04-06-2019 31.1 (15:40) 8.7 (00:00) 19.9 12.5 (15:20) 6.67 (15:10) 0 0 0 0 0
03-06-2019 30.4 (13:00) 9.8 (00:00) 20.1 10 (13:50) 4.17 (13:40) 0 0 0 0 0
02-06-2019 33.2 (16:50) 8.2 (00:00) 20.7 6.94 (17:10) 2.78 (17:20) 0 0 0 0 0
01-06-2019 31.1 (17:30) 8.3 (00:00) 19.7 7.22 (17:50) 2.5 (18:00) 0 0 0 0 0
31-05-2019 29.8 (17:50) 6.5 (00:00) 18.1 6.94 (20:20) 2.5 (19:00) 0 0 0 0 0
30-05-2019 28.1 (17:20) 5.3 (00:00) 16.7 8.61 (15:00) 3.61 (19:40) 0 0 0 0 0
29-05-2019 21.7 (17:00) 5.7 (00:00) 13.7 11.39 (10:20) 4.44 (10:50) 0 0 0 0 0
28-05-2019 21.5 (16:20) 9.1 (00:00) 15.3 9.17 (19:30) 4.44 (18:30) 0 0 0 0 0
27-05-2019 25.6 (17:20) 4.8 (00:00) 15.2 8.89 (15:40) 4.44 (15:10) 0 0 0 0 0
26-05-2019 20.5 (17:00) 7.7 (00:00) 14.1 8.06 (20:40) 3.61 (18:10) 0 0 0 0 0
25-05-2019 19.1 (17:30) 10 (00:00) 14.6 8.33 (08:50) 3.61 (11:10) 0 0 0 0 0
24-05-2019 17.6 (00:20) 11.2 (00:00) 14.4 8.06 (00:50) 3.61 (00:40) 3.8 0.4 0.2 3.2 0
23-05-2019 26.6 (18:00) 8.3 (00:00) 17.5 7.22 (16:30) 3.89 (16:30) 0 0 0 0 0
22-05-2019 26.4 (18:40) 3.8 (00:00) 15.1 6.67 (19:50) 2.78 (16:50) 0 0 0 0 0

Gráficas

Temp. máximas Temp. mínimas Temp. medias Precipitaciones Rachas de viento máximas Velocidades máximas media en intervalos de 10 minutos

Datos horarios

Fecha y hora oficial Temperatura (ºC) Velocidad del viento (km/h) Dirección del viento Racha (km/h) Dirección de racha Precipitación (mm) Presión (hPa) Tendencia (hPa) Humedad (%)
2019-06-20 23:00:00 20 5 Sur 12 Sur 0 911.8 1.8 68
2019-06-20 22:00:00 21.1 5 Sudeste 26 Sudeste 0 911 1.6 63
2019-06-20 21:00:00 22.9 8 Este 19 Nordeste 0 910.5 1.4 55
2019-06-20 20:00:00 22.6 10 Nordeste 32 Norte 0 910 0.4 54
2019-06-20 19:00:00 28.9 13 Sudoeste 28 Sudoeste 0 909.4 -0.6 32
2019-06-20 18:00:00 28.2 9 Sudeste 30 Este 0 909.1 -1.2 40
2019-06-20 17:00:00 26.4 9 Este 33 Este 0 909.6 -1.3 44
2019-06-20 16:00:00 27.2 12 Este 35 Este 0 910 -1.3 44
2019-06-20 15:00:00 28.2 8 Sudeste 28 Este 0 910.3 -1.4 39
2019-06-20 14:00:00 29.4 7 Sudeste 32 Sur 0 910.9 -1.2 32
2019-06-20 13:00:00 29.4 6 Sudeste 20 Sur 0 911.3 -1.2 24
2019-06-20 12:00:00 27 8 Sudoeste 14 Oeste 0 911.7 -1.2 20
2019-06-20 11:00:00 24.5 3 Sudeste 6 Este 0 912.1 -0.9 36
2019-06-20 10:00:00 20.9 4 Sur 8 Sur 0 912.5 -0.5 43
2019-06-20 09:00:00 16.8 3 Sur 5 Oeste 0 912.9 0.1 58
2019-06-20 08:00:00 12.9 3 Norte 6 Noroeste 0 913 0.3 69
2019-06-20 07:00:00 11.1 0 Calma 7 Nordeste 0 913 0.4 75
2019-06-20 06:00:00 11.6 2 Oeste 5 Norte 0 912.8 0 74
2019-06-20 05:00:00 12.8 2 Noroeste 6 Norte 0 912.7 -0.3 65
2019-06-20 04:00:00 13.8 3 Noroeste 7 Norte 0 912.6 -0.2 62
2019-06-20 03:00:00 15 4 Noroeste 8 Nordeste 0 912.8 0.2 56
2019-06-20 02:00:00 16.1 3 Norte 9 Norte 0 913 0.9 53
2019-06-20 01:00:00 17.8 4 Norte 8 Nordeste 0 912.8 1.3 46
2019-06-20 00:00:00 20.1 4 Norte 11 Norte 0 912.6 1.4 38
2019-06-19 23:00:00 21.6 2 Sudoeste 15 Sudoeste 0 912.1 1.3 34
2019-06-19 22:00:00 24.2 7 Sudoeste 17 Sudoeste 0 911.5 0.8 28
2019-06-19 21:00:00 26.5 9 Sudoeste 26 Sur 0 911.2 0.5 24
2019-06-19 20:00:00 29 14 Sudoeste 32 Sudoeste 0 910.8 -0.1 21
2019-06-19 19:00:00 30.3 12 Sudoeste 33 Sur 0 910.7 -0.6 20
2019-06-19 18:00:00 30.7 15 Sur 39 Sur 0 910.7 -1.2 19
2019-06-19 17:00:00 31.4 15 Sur 32 Sur 0 910.9 -1.4 20
2019-06-19 16:00:00 30.9 14 Sur 31 Sur 0 911.3 -1.6 22
2019-06-19 15:00:00 30.5 14 Sur 35 Sur 0 911.9 -1.3 23
2019-06-19 14:00:00 28.9 7 Sudeste 23 Sudoeste 0 912.3 -1.1 28
2019-06-19 13:00:00 27.4 12 Sur 23 Sudoeste 0 912.9 -0.9 31
2019-06-19 12:00:00 25.2 5 Sudoeste 15 Sudeste 0 913.2 -0.7 35
2019-06-19 11:00:00 24 4 Sur 9 Sur 0 913.4 -0.3 38
2019-06-19 10:00:00 20 3 Este 5 Sudeste 0 913.8 0.4 37
2019-06-19 09:00:00 15.9 2 Oeste 6 Norte 0 913.9 0.7 51
2019-06-19 08:00:00 11.1 0 Calma 4 Noroeste 0 913.7 0.8 68
2019-06-19 07:00:00 9.2 0 Calma 6 Oeste 0 913.4 0.5 72
2019-06-19 06:00:00 9.7 3 Oeste 6 Norte 0 913.2 0.2 75
2019-06-19 05:00:00 10.8 0 Calma 7 Oeste 0 912.9 -0.2 69
2019-06-19 04:00:00 11.4 3 Norte 5 Sudoeste 0 912.9 -0.2 66
2019-06-19 03:00:00 12.6 2 Noroeste 10 Norte 0 913 -0.2 59
2019-06-19 02:00:00 14.2 2 Noroeste 8 Nordeste 0 913.1 0.1 57
2019-06-19 01:00:00 16.6 3 Nordeste 7 Oeste 0 913.1 1 48
2019-06-19 00:00:00 19.2 2 Sur 16 Sur 0 913.2 1.7 40
2019-06-18 23:00:00 20.7 8 Sur 24 Sur 0 913 2.3 37
2019-06-18 22:00:00 22.3 8 Sur 21 Sudeste 0 912.1 1.7 33
2019-06-18 21:00:00 25.2 7 Sudeste 31 Sudoeste 0 911.5 0.9 31
2019-06-18 20:00:00 30 15 Sur 39 Sur 0 910.7 -0.3 22
2019-06-18 19:00:00 31.4 13 Sur 37 Sur 0 910.4 -1.1 17
2019-06-18 18:00:00 31.2 12 Sur 40 Sur 0 910.6 -1.4 16
2019-06-18 17:00:00 31.7 14 Sur 41 Sur 0 911 -1.4 17
2019-06-18 16:00:00 31.4 14 Sur 36 Sudoeste 0 911.5 -1.2 17
2019-06-18 15:00:00 30.7 18 Sudoeste 41 Sudoeste 0 912 -0.9 18
2019-06-18 14:00:00 30.4 18 Sur 39 Oeste 0 912.4 -0.9 17
2019-06-18 13:00:00 29.4 14 Sudoeste 33 Sudoeste 0 912.7 -1.1 19
2019-06-18 12:00:00 28.5 9 Sur 24 Sur 0 912.9 -1 20
2019-06-18 11:00:00 25.6 12 Sur 26 Sur 0 913.3 -0.5 27
2019-06-18 10:00:00 22.6 7 Sur 21 Sur 0 913.8 0.1 37
2019-06-18 09:00:00 18.7 5 Sudeste 8 Sudeste 0 913.9 0.4 49
2019-06-18 08:00:00 14.2 3 Nordeste 7 Nordeste 0 913.8 0.2 61
2019-06-18 07:00:00 13.9 3 Norte 5 Norte 0 913.7 -0.3 61
2019-06-18 06:00:00 14.9 0 Calma 8 Oeste 0 913.5 -0.7 60
2019-06-18 05:00:00 16 0 Calma 5 Nordeste 0 913.6 -1 56
2019-06-18 04:00:00 16.7 0 Calma 5 Nordeste 0 914 -1 52
2019-06-18 03:00:00 17.5 0 Calma 8 Sudeste 0 914.2 -0.5 43
2019-06-18 02:00:00 18.3 3 Sudeste 8 Este 0 914.6 0.4 41
2019-06-18 01:00:00 18.7 3 Sur 9 Sur 0 915 1.4 51
2019-06-18 00:00:00 19.2 4 Sur 14 Sudeste 0 914.7 1.8 50
2019-06-17 23:00:00 20 7 Sur 19 Sur 0 914.2 2 51
2019-06-17 22:00:00 21.5 9 Sur 23 Sur 0 913.6 1.7 50
2019-06-17 21:00:00 23.9 7 Sudeste 27 Nordeste 0 912.9 0.6 45
2019-06-17 20:00:00 27 10 Este 31 Nordeste 0 912.2 -0.5 36
2019-06-17 19:00:00 29.3 9 Este 31 Sur 0 911.9 -1.3 30
2019-06-17 18:00:00 31.9 8 Sudeste 26 Sur 0 912.3 -1.4 16
2019-06-17 17:00:00 31.7 8 Sur 27 Oeste 0 912.7 -1.8 14
2019-06-17 16:00:00 31.2 7 Sur 24 Sur 0 913.2 -1.8 15
2019-06-17 15:00:00 30.5 8 Sudoeste 26 Sur 0 913.7 -1.7 15
2019-06-17 14:00:00 30.1 8 Sur 28 Sur 0 914.5 -1.3 20
2019-06-17 13:00:00 28.5 9 Sudoeste 17 Sudoeste 0 915 -1.1 22
2019-06-17 12:00:00 26.7 4 Sur 8 Sudoeste 0 915.4 -0.9 22
2019-06-17 11:00:00 23.3 3 Este 8 Este 0 915.8 -0.4 42
2019-06-17 10:00:00 19.9 3 Este 7 Nordeste 0 916.1 0.1 53
2019-06-17 09:00:00 16.2 4 Nordeste 8 Norte 0 916.3 0.6 69
2019-06-17 08:00:00 11.4 3 Oeste 5 Oeste 0 916.2 0.5 86
2019-06-17 07:00:00 10.1 4 Oeste 5 Oeste 0 916 -0.1 88
2019-06-17 06:00:00 11 2 Oeste 5 Noroeste 0 915.7 -0.5 86
2019-06-17 05:00:00 11.7 2 Noroeste 5 Norte 0 915.7 -0.7 83
2019-06-17 04:00:00 13 2 Este 4 Sudeste 0 916.1 -0.6 80
2019-06-17 03:00:00 14.1 0 Calma 5 Nordeste 0 916.2 -0.6 75
2019-06-17 02:00:00 15.6 3 Sudoeste 8 Sur 0 916.4 0 70
2019-06-17 01:00:00 16.9 5 Sur 8 Sur 0 916.7 0.9 65
2019-06-17 00:00:00 17.7 3 Este 15 Sur 0 916.8 1.3 62
2019-06-16 23:00:00 19.5 7 Sur 12 Sur 0 916.4 1.2 55
2019-06-16 22:00:00 20.8 5 Sur 19 Sur 0 915.8 0.8 51
2019-06-16 21:00:00 22.1 9 Sudoeste 24 Sur 0 915.5 0.3 46
2019-06-16 20:00:00 23.6 9 Sur 22 Sur 0 915.2 -0.4 41
2019-06-16 19:00:00 24.6 10 Sudoeste 23 Sur 0 915 -1 33
2019-06-16 18:00:00 25.1 10 Sur 30 Sur 0 915.2 -1.3 31
2019-06-16 17:00:00 26.2 13 Sur 23 Sur 0 915.6 -1.3 29
2019-06-16 16:00:00 26.7 10 Sur 29 Sudoeste 0 916 -1.3 27
2019-06-16 15:00:00 27.2 14 Sudoeste 28 Sudoeste 0 916.5 -1.3 25
2019-06-16 14:00:00 26.4 13 Sur 28 Sudoeste 0 916.9 -1.1 26
2019-06-16 13:00:00 25.5 12 Sur 25 Sur 0 917.3 -0.8 28
2019-06-16 12:00:00 23.7 5 Sudeste 14 Sur 0 917.8 -0.4 35
2019-06-16 11:00:00 21 4 Sur 10 Sur 0 918 0 40
2019-06-16 10:00:00 17.7 3 Este 8 Este 0 918.1 0.4 50
2019-06-16 09:00:00 14 2 Sudeste 7 Nordeste 0 918.2 0.8 60
2019-06-16 08:00:00 9.8 0 Calma 6 Norte 0 918 0.4 76
2019-06-16 07:00:00 7.6 4 Norte 7 Noroeste 0 917.7 0.1 81
2019-06-16 06:00:00 8.8 2 Norte 9 Norte 0 917.4 -0.4 77
2019-06-16 05:00:00 9.4 2 Norte 9 Oeste 0 917.6 -0.3 75
2019-06-16 04:00:00 10.5 8 Oeste 9 Oeste 0 917.6 -0.1 76
2019-06-16 03:00:00 12.2 5 Oeste 10 Oeste 0 917.8 0.4 69
2019-06-16 02:00:00 13.9 3 Norte 8 Norte 0 917.9 1.3 62
2019-06-16 01:00:00 15.8 5 Nordeste 12 Este 0 917.7 2.3 56
2019-06-16 00:00:00 16.8 5 Este 23 Este 0 917.4 2.5 53
2019-06-15 23:00:00 18.4 11 Este 27 Sudeste 0 916.6 2.3 49
2019-06-15 22:00:00 20.1 7 Este 24 Este 0 915.4 1.4 43
2019-06-15 21:00:00 22.8 7 Este 21 Este 0 914.9 0.7 35
2019-06-15 20:00:00 26.6 4 Norte 12 Sudoeste 0 914.3 -0.3 19
2019-06-15 19:00:00 26.9 7 Noroeste 20 Oeste 0 914 -1 20
2019-06-15 18:00:00 26.7 7 Sudoeste 18 Oeste 0 914.2 -1.2 21
2019-06-15 17:00:00 25.4 5 Nordeste 17 Oeste 0 914.6 -1.1 25
2019-06-15 16:00:00 24.9 5 Sur 11 Sur 0 915 -1 24
2019-06-15 15:00:00 23.5 6 Sur 14 Este 0 915.4 -0.8 26
2019-06-15 14:00:00 22.8 6 Este 18 Este 0 915.7 -0.5 26
2019-06-15 13:00:00 21.1 8 Nordeste 21 Norte 0 916 -0.2 31
2019-06-15 12:00:00 19.5 8 Norte 19 Noroeste 0 916.2 0.2 33
2019-06-15 11:00:00 18.4 8 Norte 21 Noroeste 0 916.2 0.7 36
2019-06-15 10:00:00 16.7 4 Sudeste 10 Este 0 916.2 1.2 45
2019-06-15 09:00:00 12.8 2 Sur 5 Norte 0 916 1.3 58
2019-06-15 08:00:00 8 0 Calma 7 Norte 0 915.5 1 77
2019-06-15 07:00:00 6.3 3 Norte 6 Norte 0 915 0.7 82
2019-06-15 06:00:00 7 3 Noroeste 9 Norte 0 914.7 0.7 82
2019-06-15 05:00:00 8 3 Noroeste 7 Norte 0 914.5 0.8 80
2019-06-15 04:00:00 8.7 3 Norte 7 Noroeste 0 914.3 1.1 75
2019-06-15 03:00:00 10.4 2 Este 7 Nordeste 0 914 1.3 64
2019-06-15 02:00:00 11.9 2 Nordeste 10 Norte 0 913.7 1.5 61
2019-06-15 01:00:00 13.6 4 Sudeste 7 Sur 0 913.2 1.6 58
2019-06-15 00:00:00 15.8 0 Calma 8 Oeste 0 912.7 2 39
2019-06-14 23:00:00 17.6 4 Oeste 16 Oeste 0 912.2 2.2 37
2019-06-14 22:00:00 20.1 7 Sudoeste 23 Sudoeste 0 911.6 2.2 27
2019-06-14 21:00:00 22.6 13 Sudoeste 31 Sudoeste 0 910.7 1.1 22
2019-06-14 20:00:00 24.9 17 Sudoeste 35 Sudoeste 0 910 0.8 21
2019-06-14 19:00:00 25.9 18 Sudoeste 39 Sudoeste 0 909.4 0.2 22
2019-06-14 18:00:00 26.3 18 Sudoeste 40 Sudoeste 0 909.6 0.3 21
2019-06-14 17:00:00 26.7 19 Sudoeste 41 Sur 0 909.2 -0.8 21
2019-06-14 16:00:00 26.8 18 Sudoeste 38 Sur 0 909.2 -1.1 21
2019-06-14 15:00:00 25.1 6 Sudeste 17 Sur 0 909.3 -1.2 43
2019-06-14 14:00:00 22.9 6 Sudeste 13 Sudeste 0 910 0.1 53
2019-06-14 13:00:00 20.8 5 Sudoeste 14 Sur 0 910.3 0.2 61
2019-06-14 12:00:00 18.1 3 Sudeste 15 Sur 0 910.5 0.8 76
2019-06-14 11:00:00 16.2 3 Nordeste 9 Nordeste 0 909.9 0.2 85
2019-06-14 10:00:00 14.6 4 Sur 15 Sur 0.4 910.1 1.2 92
2019-06-14 09:00:00 12.5 4 Nordeste 10 Sudoeste 2.8 909.7 0.6 95
2019-06-14 08:00:00 12 4 Noroeste 11 Oeste 0.8 909.7 1.2 94
2019-06-14 07:00:00 11.5 0 Calma 5 Noroeste 0 908.9 0 91
2019-06-14 06:00:00 11.7 3 Oeste 4 Oeste 0 909.1 0.1 90
2019-06-14 05:00:00 12.5 0 Calma 5 Nordeste 0 908.5 -1.3 88
2019-06-14 04:00:00 13.4 3 Sudoeste 7 Sur 0 908.9 -1.5 86
2019-06-14 03:00:00 13.5 2 Este 7 Sudeste 0 909 -1.1 87
2019-06-14 02:00:00 14.1 3 Sudeste 12 Sudeste 0 909.8 -0.2 83
2019-06-14 01:00:00 14.6 5 Sur 12 Sudoeste 0 910.4 1.1 81
2019-06-14 00:00:00 15.4 0 Calma 10 Sur 0 910.1 1.1 78
2019-06-13 23:00:00 16 5 Sudeste 15 Sur 0 910 1.4 76
2019-06-13 22:00:00 17.2 5 Sur 17 Sur 0 909.3 1 69
2019-06-13 21:00:00 18.7 8 Sudeste 24 Este 0 909 0.5 63
2019-06-13 20:00:00 20.5 9 Este 26 Sur 0 908.6 -0.3 57
2019-06-13 19:00:00 21.8 8 Sudeste 23 Este 0 908.3 -1.1 52
2019-06-13 18:00:00 22.7 6 Sudeste 22 Sur 0 908.5 -1 42
2019-06-13 17:00:00 22.9 12 Sur 24 Sudoeste 0 908.9 -1.4 41
2019-06-13 16:00:00 23.5 7 Sudoeste 18 Sudeste 0 909.4 -1.3 40
2019-06-13 15:00:00 23.1 6 Sur 27 Sur 0 909.5 -1.7 44
2019-06-13 14:00:00 23.1 7 Sudeste 21 Sur 0 910.3 -1 44
2019-06-13 13:00:00 19.6 9 Sudoeste 22 Sudeste 0 910.7 -0.8 54
2019-06-13 12:00:00 18.9 8 Sudeste 18 Sudeste 0 911.2 0 59
2019-06-13 11:00:00 17.8 4 Sudeste 16 Sur 0 911.3 0.3 65
2019-06-13 10:00:00 17.1 7 Sur 18 Sur 0 911.5 0.6 66
2019-06-13 09:00:00 13.9 4 Sur 11 Sur 0 911.2 0.4 75
2019-06-13 08:00:00 12.7 3 Sudeste 14 Sur 0 911 0.3 72
2019-06-13 07:00:00 11.9 4 Sudeste 15 Sudeste 0 910.9 0 84
2019-06-13 06:00:00 11.4 6 Sur 20 Sur 0 910.8 -0.4 84
2019-06-13 05:00:00 11.1 6 Sudeste 17 Sudeste 0 910.7 -0.8 81
2019-06-13 04:00:00 9.5 3 Sur 9 Sur 0 910.9 -0.9 76
2019-06-13 03:00:00 9.6 3 Oeste 6 Este 0 911.2 -0.5 73
2019-06-13 02:00:00 10.4 4 Sudeste 13 Sudeste 0 911.5 -0.1 71
2019-06-13 01:00:00 11 5 Sudeste 14 Sur 0 911.8 1.4 69
2019-06-13 00:00:00 11.5 5 Sudeste 19 Nordeste 0 911.7 2.1 66
2019-06-12 23:00:00 12.5 7 Sudeste 21 Sudeste 0 911.6 2.4 62
2019-06-12 22:00:00 14.2 6 Sudeste 27 Sur 0 910.4 1.7 54
2019-06-12 21:00:00 16.3 9 Sudeste 27 Este 0 909.6 0.3 47
2019-06-12 20:00:00 18.6 9 Sudeste 32 Sudeste 0 909.2 -0.5 43
2019-06-12 19:00:00 20.7 10 Este 31 Sur 0 908.7 -1.1 37
2019-06-12 18:00:00 23.2 11 Sur 32 Sur 0 909.3 -1.1 29
2019-06-12 17:00:00 24.7 11 Sur 31 Sur 0 909.7 -1.4 24
2019-06-12 16:00:00 22.9 11 Sur 35 Sur 0 909.8 -2 24
2019-06-12 15:00:00 22.5 12 Sur 29 Sudoeste 0 910.4 -1.9 21
2019-06-12 14:00:00 21.2 10 Sur 25 Sur 0 911.1 -1.5 21
2019-06-12 13:00:00 19.3 7 Sudoeste 17 Sur 0 911.8 -1.1 21
2019-06-12 12:00:00 17.9 8 Oeste 18 Sur 0 912.3 -0.8 26
2019-06-12 11:00:00 15.3 5 Sur 15 Sur 0 912.6 -0.3 46
2019-06-12 10:00:00 11.2 4 Sudeste 9 Sudeste 0 912.9 0.3 59
2019-06-12 09:00:00 7.5 2 Sudeste 5 Norte 0 913.1 1 69
2019-06-12 08:00:00 2.9 0 Calma 5 Norte 0 912.9 1 87
2019-06-12 07:00:00 0.8 0 Calma 5 Noroeste 0 912.6 0.4 90
2019-06-12 06:00:00 1.6 4 Norte 6 Norte 0 912.1 -0.6 90
2019-06-12 05:00:00 1.9 4 Norte 8 Norte 0 911.9 -1 90
2019-06-12 04:00:00 2.8 3 Norte 8 Noroeste 0 912.2 -0.6 84
2019-06-12 03:00:00 4.3 0 Calma 7 Oeste 0 912.7 -0.2 81
2019-06-12 02:00:00 6.1 4 Oeste 8 Noroeste 0 912.9 0.2 76
2019-06-12 01:00:00 6.7 0 Calma 7 Oeste 0 912.8 0.8 73
2019-06-12 00:00:00 7.6 3 Oeste 12 Norte 0 912.9 1.2 69
2019-06-11 23:00:00 9 6 Norte 12 Norte 0 912.7 1.3 63
2019-06-11 22:00:00 10.5 5 Noroeste 15 Oeste 0 912 0.6 57
2019-06-11 21:00:00 12.3 8 Noroeste 27 Noroeste 0 911.7 0.4 50
2019-06-11 20:00:00 14.1 11 Noroeste 29 Norte 0 911.4 -0.1 44
2019-06-11 19:00:00 13.3 10 Noroeste 33 Noroeste 0 911.4 -0.1 48
2019-06-11 18:00:00 13.4 10 Norte 30 Noroeste 0 911.3 0.1 52
2019-06-11 17:00:00 10.7 8 Nordeste 22 Nordeste 0 911.5 0.7 66
2019-06-11 16:00:00 10.5 9 Norte 25 Nordeste 0 911.5 1.3 65
2019-06-11 15:00:00 10.4 9 Norte 25 Nordeste 0 911.2 1.4 68
2019-06-11 14:00:00 10.4 6 Nordeste 19 Este 0.2 910.8 1 78
2019-06-11 13:00:00 12.3 7 Norte 24 Norte 0 910.2 0.7 65
2019-06-11 12:00:00 13.8 8 Norte 23 Nordeste 0 909.8 0.4 53
2019-06-11 11:00:00 13.2 8 Noroeste 18 Norte 0 909.8 0.6 53
2019-06-11 10:00:00 12 9 Noroeste 23 Norte 0 909.5 0.3 57
2019-06-11 09:00:00 11.3 9 Noroeste 23 Noroeste 0 909.4 0.1 57
2019-06-11 08:00:00 10.6 9 Noroeste 19 Noroeste 0 909.2 -0.4 60
2019-06-11 07:00:00 10.6 3 Noroeste 9 Noroeste 0 909.2 -0.7 62
2019-06-11 06:00:00 10.3 0 Calma 6 Nordeste 0 909.3 -1.2 69
2019-06-11 05:00:00 9.9 4 Noroeste 8 Oeste 0 909.6 -1.4 69
2019-06-11 04:00:00 10.1 7 Oeste 15 Oeste 0 909.9 -1.6 66
2019-06-11 03:00:00 10 4 Oeste 12 Oeste 0 910.5 -0.9 68
2019-06-11 02:00:00 10.9 9 Oeste 17 Noroeste 0 911 -0.4 65
2019-06-11 01:00:00 12.5 10 Noroeste 21 Noroeste 0 911.5 1.2 59
2019-06-11 00:00:00 15 4 Oeste 24 Nordeste 0 911.4 1.5 54
2019-06-10 23:00:00 16 12 Nordeste 24 Norte 0 911.4 1.9 51
2019-06-10 22:00:00 18.8 3 Sudeste 17 Este 0 910.3 0.7 60
2019-06-10 21:00:00 21.3 5 Este 22 Nordeste 0 909.9 0.1 41
2019-06-10 20:00:00 23.2 9 Nordeste 22 Nordeste 0 909.5 -0.7 34
2019-06-10 19:00:00 23.1 6 Noroeste 19 Norte 0 909.6 -1.2 30
2019-06-10 18:00:00 24.7 5 Norte 14 Noroeste 0 909.8 -1.5 30
2019-06-10 17:00:00 24.7 6 Nordeste 14 Nordeste 0 910.2 -1.8 29
2019-06-10 16:00:00 24.4 5 Este 18 Norte 0 910.8 -1.8 33
2019-06-10 15:00:00 24.7 9 Oeste 22 Oeste 0 911.3 -2 28
2019-06-10 14:00:00 23.8 8 Noroeste 16 Noroeste 0 912 -1.9 28
2019-06-10 13:00:00 21.8 8 Norte 18 Norte 0 912.6 -1.5 37
2019-06-10 12:00:00 19.3 5 Este 12 Este 0 913.3 -0.8 52
2019-06-10 11:00:00 16.5 5 Este 14 Este 0 913.9 -0.3 62
2019-06-10 10:00:00 13.1 7 Nordeste 15 Nordeste 0 914.1 0.3 76
2019-06-10 09:00:00 11.6 4 Nordeste 9 Este 0 914.1 0.7 80
2019-06-10 08:00:00 10.7 4 Nordeste 8 Nordeste 0 914.2 0.5 85
2019-06-10 07:00:00 9.4 3 Norte 19 Noroeste 0 913.8 0.2 90
2019-06-10 06:00:00 9.8 8 Noroeste 17 Noroeste 0 913.4 -0.1 88
2019-06-10 05:00:00 10.7 7 Noroeste 19 Sudoeste 0 913.7 0.5 83
2019-06-10 04:00:00 11.7 10 Oeste 22 Oeste 0 913.6 0.5 80
2019-06-10 03:00:00 13 7 Oeste 18 Oeste 0 913.5 0.7 76
2019-06-10 02:00:00 14.9 5 Oeste 10 Oeste 0 913.2 0.8 66
2019-06-10 01:00:00 16.5 5 Oeste 14 Noroeste 0 913.1 1.3 52
2019-06-10 00:00:00 16.2 3 Norte 9 Oeste 0 912.8 1.6 42
2019-06-09 23:00:00 19.5 2 Noroeste 5 Este 0 912.4 1.7 32
2019-06-09 22:00:00 21.5 3 Sur 20 Oeste 0 911.8 1.7 27
2019-06-09 21:00:00 24.5 14 Oeste 25 Oeste 0 911.2 0.9 21
2019-06-09 20:00:00 27.5 12 Oeste 28 Sudoeste 0 910.7 0.3 19
2019-06-09 19:00:00 28.9 11 Noroeste 26 Norte 0 910.1 -0.6 18
2019-06-09 18:00:00 28 18 Sur 33 Sur 0 910.3 -1.2 20
2019-06-09 17:00:00 29.1 11 Sur 33 Sur 0 910.4 -2 18
2019-06-09 16:00:00 29.1 5 Nordeste 15 Oeste 0 910.7 -2.7 21
2019-06-09 15:00:00 27.7 8 Norte 20 Oeste 0 911.5 -2.5 25
2019-06-09 14:00:00 27.1 8 Sur 18 Sur 0 912.4 -2 27
2019-06-09 13:00:00 24.8 5 Sur 17 Sur 0 913.4 -1.5 33
2019-06-09 12:00:00 21.5 8 Sur 21 Sur 0 914 -1 42
2019-06-09 11:00:00 19.5 6 Sudeste 16 Sur 0 914.4 -0.5 45
2019-06-09 10:00:00 17 4 Sudeste 10 Sur 0 914.9 -0.1 48
2019-06-09 09:00:00 13.7 0 Calma 4 Sur 0 915 0 66
2019-06-09 08:00:00 12 2 Este 6 Sur 0 914.9 -0.4 77
2019-06-09 07:00:00 11.2 3 Este 5 Nordeste 0 915 -0.9 79
2019-06-09 06:00:00 11.9 3 Sudeste 10 Sudeste 0 915 -1.3 77
2019-06-09 05:00:00 12.7 3 Sudeste 6 Sur 0 915.3 -1.4 73
2019-06-09 04:00:00 13.2 0 Calma 6 Sur 0 915.9 -1.2 71
2019-06-09 03:00:00 13.1 3 Este 6 Sudeste 0 916.3 -1.3 70
2019-06-09 02:00:00 13.9 0 Calma 5 Sur 0 916.7 -1 66
2019-06-09 01:00:00 14.9 3 Sur 8 Sur 0 917.1 -0.2 56
2019-06-09 00:00:00 15.4 5 Sur 19 Sur 0 917.6 0.5 47
2019-06-08 23:00:00 15.7 9 Sur 20 Sudeste 0 917.7 0.9 46
2019-06-08 22:00:00 16.2 6 Sudeste 30 Sudeste 0 917.3 0.9 46
2019-06-08 21:00:00 17.4 6 Sudeste 27 Este 0 917.1 0.8 45
2019-06-08 20:00:00 18.9 8 Sudeste 27 Este 0 916.8 0.3 43
2019-06-08 19:00:00 21.1 8 Sudeste 29 Sur 0 916.4 -0.6 40
2019-06-08 18:00:00 23.1 9 Sudeste 30 Este 0 916.3 -1.2 38
2019-06-08 17:00:00 24.4 9 Este 35 Este 0 916.5 -1.5 37
2019-06-08 16:00:00 23.4 10 Este 30 Este 0 917 -1.5 40
2019-06-08 15:00:00 24.8 10 Este 31 Este 0 917.5 -1.4 38
2019-06-08 14:00:00 23.7 10 Este 28 Este 0 918 -1.2 39
2019-06-08 13:00:00 22.3 12 Este 34 Este 0 918.5 -0.7 42
2019-06-08 12:00:00 21.1 9 Sudeste 29 Este 0 918.9 -0.4 45
2019-06-08 11:00:00 19.6 10 Sudeste 26 Este 0 919.2 -0.1 50
2019-06-08 10:00:00 17.6 6 Sudeste 21 Este 0 919.2 0.1 55
2019-06-08 09:00:00 12.1 4 Oeste 7 Norte 0 919.3 0.7 53
2019-06-08 08:00:00 8.6 3 Noroeste 9 Noroeste 0 919.3 0.6 62
2019-06-08 07:00:00 6.9 6 Noroeste 12 Norte 0 919.1 0.5 64
2019-06-08 06:00:00 6.6 3 Norte 10 Norte 0 918.6 0 66
2019-06-08 05:00:00 7.7 5 Norte 9 Nordeste 0 918.7 0.3 64
2019-06-08 04:00:00 8.9 3 Norte 10 Noroeste 0 918.6 0.2 60
2019-06-08 03:00:00 10.4 6 Oeste 10 Oeste 0 918.6 0.5 52
2019-06-08 02:00:00 10.9 6 Oeste 9 Oeste 0 918.4 1 51
2019-06-08 01:00:00 12.1 6 Oeste 12 Oeste 0 918.4 2.1 47
2019-06-08 00:00:00 13.2 7 Oeste 17 Noroeste 0 918.1 3.1 43
2019-06-07 23:00:00 14.7 4 Noroeste 13 Noroeste 0 917.4 3.2 38
2019-06-07 22:00:00 17 4 Norte 15 Norte 0 916.3 2.9 32
2019-06-07 21:00:00 20.1 8 Noroeste 18 Noroeste 0 915 1.9 25
2019-06-07 20:00:00 23.4 6 Noroeste 22 Noroeste 0 914.2 1.4 16
2019-06-07 19:00:00 24.8 10 Oeste 27 Noroeste 0 913.4 0.8 12
2019-06-07 18:00:00 24.7 10 Oeste 35 Oeste 0 913.1 0.7 11
2019-06-07 17:00:00 24.7 13 Oeste 26 Oeste 0 912.8 0.5 11
2019-06-07 16:00:00 23.9 8 Oeste 30 Oeste 0 912.6 0.3 14
2019-06-07 15:00:00 23.5 9 Sudoeste 21 Sudoeste 0 912.4 0.5 15
2019-06-07 14:00:00 21.9 9 Oeste 26 Oeste 0 912.3 1 22
2019-06-07 13:00:00 20.6 6 Oeste 26 Oeste 0 912.3 1.5 31
2019-06-07 12:00:00 19.2 13 Oeste 30 Sudoeste 0 911.9 2.1 38
2019-06-07 11:00:00 18.7 15 Sudoeste 27 Oeste 0 911.3 1.6 41
2019-06-07 10:00:00 16.6 11 Sur 21 Sur 0 910.8 1.7 55
2019-06-07 09:00:00 15.5 10 Sur 24 Sur 0 909.8 0.9 57
2019-06-07 08:00:00 13.2 9 Sur 22 Sudoeste 0 909.7 0.9 64
2019-06-07 07:00:00 10.3 8 Sur 15 Sur 0 909.1 0.6 84
2019-06-07 06:00:00 8.3 2 Sudeste 5 Sur 0 908.9 0.5 90
2019-06-07 05:00:00 9 3 Norte 4 Norte 0 908.8 0.1 88
2019-06-07 04:00:00 9.8 2 Norte 8 Sudoeste 0 908.5 -0.2 84
2019-06-07 03:00:00 11 3 Sudeste 6 Sur 0 908.4 -0.2 81
2019-06-07 02:00:00 12.5 0 Calma 14 Sudoeste 0 908.7 0.1 73
2019-06-07 01:00:00 13.7 10 Sudoeste 19 Sur 0 908.7 0.4 64
2019-06-07 00:00:00 14.4 5 Sur 15 Este 0 908.6 0.9 57
2019-06-06 23:00:00 14.8 6 Sudeste 22 Sur 0 908.6 1.2 56
2019-06-06 22:00:00 15.9 6 Sudeste 25 Este 0 908.3 0.8 52
2019-06-06 21:00:00 17.6 10 Este 37 Sudeste 0 907.7 -0.3 51
2019-06-06 20:00:00 20.4 12 Este 35 Nordeste 0 907.4 -1 44
2019-06-06 19:00:00 22.7 10 Sudeste 33 Sur 0 907.5 -1.7 37
2019-06-06 18:00:00 24 11 Sur 39 Sur 0 908 -1.8 29
2019-06-06 17:00:00 24.7 15 Sur 42 Sur 0 908.4 -1.9 30
2019-06-06 16:00:00 24.4 15 Sur 50 Sur 0 909.2 -1.8 27
2019-06-06 15:00:00 23.8 20 Sur 46 Sur 0 909.8 -1.2 25
2019-06-06 14:00:00 22.4 15 Sur 39 Sur 0 910.3 -1.1 25
2019-06-06 13:00:00 21.4 20 Sur 40 Sur 0 911 -0.8 28
2019-06-06 12:00:00 20 17 Sur 32 Sur 0 911 -0.9 31
2019-06-06 11:00:00 18.2 18 Sur 32 Sudoeste 0 911.4 -0.7 33
2019-06-06 10:00:00 15.6 5 Sur 15 Sur 0 911.8 -0.2 47
2019-06-06 09:00:00 11.7 4 Sudeste 7 Sudeste 0 911.9 -0.1 60
2019-06-06 08:00:00 6.6 0 Calma 4 Nordeste 0 912.1 0.2 83
2019-06-06 07:00:00 4.6 0 Calma 4 Oeste 0 912 0.4 85
2019-06-06 06:00:00 5.1 2 Noroeste 5 Sudoeste 0 912 0.4 83
2019-06-06 05:00:00 6 2 Oeste 6 Norte 0 911.9 0.3 81
2019-06-06 04:00:00 6.9 3 Norte 6 Nordeste 0 911.6 -0.2 78
2019-06-06 03:00:00 7.9 0 Calma 8 Oeste 0 911.6 -0.1 74
2019-06-06 02:00:00 8.5 2 Noroeste 8 Norte 0 911.6 0.4 71
2019-06-06 01:00:00 9.7 3 Norte 9 Noroeste 0 911.8 1.6 64
2019-06-06 00:00:00 11.4 6 Oeste 9 Oeste 0 911.7 1.9 55
2019-06-05 23:00:00 12.8 2 Oeste 10 Noroeste 0 911.2 2 48
2019-06-05 22:00:00 15.2 2 Oeste 9 Norte 0 910.2 1 40
2019-06-05 21:00:00 16.7 3 Nordeste 17 Norte 0 909.8 0.7 36
2019-06-05 20:00:00 17.5 8 Norte 25 Noroeste 0 909.2 0.3 32
2019-06-05 19:00:00 18.7 11 Noroeste 27 Noroeste 0 909.2 0.5 32
2019-06-05 18:00:00 19.2 13 Noroeste 30 Noroeste 0 909.1 0.6 28
2019-06-05 17:00:00 19 15 Norte 36 Noroeste 0 908.9 -0.1 33
2019-06-05 16:00:00 18.6 17 Noroeste 38 Noroeste 0 908.7 0.5 31
2019-06-05 15:00:00 18.2 16 Noroeste 37 Norte 0 908.5 0.8 32
2019-06-05 14:00:00 17.3 15 Norte 42 Noroeste 0 909 2.4 39
2019-06-05 13:00:00 16.8 21 Oeste 42 Oeste 0 908.2 2.2 34
2019-06-05 12:00:00 17.7 14 Oeste 40 Oeste 0 907.7 1.9 28
2019-06-05 11:00:00 17.9 15 Oeste 31 Oeste 0 906.6 1.2 35
2019-06-05 10:00:00 18.6 12 Sudoeste 34 Sudoeste 0 906 1.1 41
2019-06-05 09:00:00 15.9 9 Sudoeste 19 Oeste 0 905.8 0.9 58
2019-06-05 08:00:00 13.5 5 Sur 15 Sudeste 0 905.4 0.2 71
2019-06-05 07:00:00 11.4 3 Este 8 Nordeste 0 904.9 -0.3 79
2019-06-05 06:00:00 11.5 4 Nordeste 8 Sudeste 0 904.9 -0.9 77
2019-06-05 05:00:00 11.5 3 Este 5 Este 0 905.2 -1.2 75
2019-06-05 04:00:00 12.7 0 Calma 4 Nordeste 0 905.2 -1.8 73
2019-06-05 03:00:00 14 0 Calma 4 Oeste 0 905.8 -1.3 68
2019-06-05 02:00:00 15.6 2 Nordeste 6 Norte 0 906.4 -0.8 62
2019-06-05 01:00:00 17.7 2 Oeste 12 Sur 0 907 0.2 55
2019-06-05 00:00:00 19.2 6 Sur 21 Este 0 907.1 0.6 51
2019-06-04 23:00:00 20.1 7 Sudeste 22 Sur 0 907.2 0.9 51
2019-06-04 22:00:00 21.6 6 Este 28 Este 0 906.8 0.5 53
2019-06-04 21:00:00 26.3 10 Sur 30 Sur 0 906.5 -0.2 28
2019-06-04 20:00:00 29.2 15 Sur 34 Sudoeste 0 906.3 -1.1 22
2019-06-04 19:00:00 29.3 19 Sur 40 Sur 0 906.3 -1.8 15
2019-06-04 18:00:00 30.6 20 Sur 40 Sur 0 906.7 -2.1 14
2019-06-04 17:00:00 30.5 12 Sur 38 Sudoeste 0 907.4 -2.1 19
2019-06-04 16:00:00 30.8 17 Sudoeste 45 Sur 0 908.1 -2 18
2019-06-04 15:00:00 30.9 17 Sur 41 Sur 0 908.8 -1.7 19
2019-06-04 14:00:00 29.9 17 Sudoeste 34 Sur 0 909.5 -1.5 20
2019-06-04 13:00:00 29.5 15 Sur 30 Sur 0 910.1 -1.6 23
2019-06-04 12:00:00 27.8 12 Sur 26 Sudeste 0 910.5 -1.4 27
2019-06-04 11:00:00 24.2 5 Sudeste 17 Sur 0 911 -0.7 36
2019-06-04 10:00:00 20.3 5 Sudeste 11 Sudeste 0 911.7 0.1 46
2019-06-04 09:00:00 15.6 0 Calma 4 Sudoeste 0 911.9 0.5 62
2019-06-04 08:00:00 10.6 0 Calma 4 Oeste 0 911.7 0 80
2019-06-04 07:00:00 8.9 0 Calma 8 Oeste 0 911.6 -0.5 84
2019-06-04 06:00:00 9.4 3 Oeste 6 Oeste 0 911.4 -1.3 83
2019-06-04 05:00:00 10.5 0 Calma 4 Nordeste 0 911.7 -1.7 75
2019-06-04 04:00:00 11.3 0 Calma 8 Oeste 0 912.1 -1.9 76
2019-06-04 03:00:00 12.7 0 Calma 4 Oeste 0 912.7 -1.6 70
2019-06-04 02:00:00 14.1 4 Oeste 6 Oeste 0 913.4 -0.8 64
2019-06-04 01:00:00 16.8 2 Sur 8 Sudeste 0 914 0.4 50
2019-06-04 00:00:00 17.5 3 Este 12 Sudeste 0 914.3 1.1 49
2019-06-03 23:00:00 18.4 4 Este 12 Este 0 914.2 1.4 49
2019-06-03 22:00:00 20.2 4 Sudeste 20 Sur 0 913.6 1 46
2019-06-03 21:00:00 21.9 8 Sur 31 Nordeste 0 913.2 0.5 41
2019-06-03 20:00:00 23.9 9 Sudeste 25 Este 0 912.8 -0.3 39
2019-06-03 19:00:00 25.3 9 Este 27 Este 0 912.6 -0.9 38
2019-06-03 18:00:00 26.9 9 Este 27 Este 0 912.7 -1.2 34
2019-06-03 17:00:00 28.5 8 Este 22 Nordeste 0 913.1 -1.2 29
2019-06-03 16:00:00 29 7 Norte 22 Este 0 913.5 -1.1 23
2019-06-03 15:00:00 29.1 5 Este 25 Sudoeste 0 913.9 -1.4 25
2019-06-03 14:00:00 28.2 8 Sur 36 Sur 0 914.3 -1.2 26
2019-06-03 13:00:00 29.7 12 Sur 26 Sur 0 914.6 -1.2 24
2019-06-03 12:00:00 27.9 7 Sur 22 Sur 0 915.3 -0.7 30
2019-06-03 11:00:00 24.7 8 Sur 21 Sur 0 915.5 -0.8 31
2019-06-03 10:00:00 21 4 Este 8 Sudeste 0 915.8 -0.3 39
2019-06-03 09:00:00 16.3 4 Sur 9 Sur 0 916 -0.2 56
2019-06-03 08:00:00 11.5 5 Oeste 9 Oeste 0 916.3 0.2 69
2019-06-03 07:00:00 10 2 Oeste 7 Nordeste 0 916.1 -0.3 75
2019-06-03 06:00:00 10.6 3 Nordeste 6 Este 0 916.2 -0.3 72
2019-06-03 05:00:00 11.2 3 Sudeste 7 Oeste 0 916.1 -0.8 70
2019-06-03 04:00:00 12.2 4 Oeste 6 Oeste 0 916.4 -0.9 63
2019-06-03 03:00:00 13.9 0 Calma 5 Sudeste 0 916.5 -0.8 58
2019-06-03 02:00:00 15.6 3 Sudeste 6 Sudeste 0 916.9 -0.1 48
2019-06-03 01:00:00 16.8 3 Sudeste 8 Sudeste 0 917.3 1.2 45
2019-06-03 00:00:00 18.2 5 Sur 16 Sur 0 917.3 1.8 41
2019-06-02 23:00:00 19.9 4 Sur 13 Sudeste 0 917 2.1 39
2019-06-02 22:00:00 21.5 5 Sudeste 16 Sur 0 916.1 1.4 36
2019-06-02 21:00:00 23.6 8 Sudeste 21 Sur 0 915.5 0.7 31
2019-06-02 20:00:00 26.2 6 Sudeste 20 Este 0 914.9 0.3 27
2019-06-02 19:00:00 28.9 7 Este 25 Sur 0 914.7 -0.2 24
2019-06-02 18:00:00 29 8 Sudeste 25 Este 0 914.8 -0.6 25
2019-06-02 17:00:00 32.8 8 Este 24 Este 0 914.6 -1.6 22
2019-06-02 16:00:00 32.5 8 Sudoeste 18 Oeste 0 914.9 -2 17
2019-06-02 15:00:00 31.6 7 Nordeste 15 Este 0 915.4 -1.9 20
2019-06-02 14:00:00 30.8 6 Nordeste 13 Noroeste 0 916.2 -1.5 17
2019-06-02 13:00:00 29.1 4 Sudeste 11 Sudeste 0 916.9 -1 22
2019-06-02 12:00:00 26.5 6 Sudeste 10 Sur 0 917.3 -0.8 31
2019-06-02 11:00:00 23.1 3 Sudeste 8 Sur 0 917.7 -0.5 36
2019-06-02 10:00:00 19 2 Sudeste 5 Norte 0 917.9 -0.2 48
2019-06-02 09:00:00 14.8 2 Este 5 Este 0 918.1 0 59
2019-06-02 08:00:00 10 0 Calma 4 Este 0 918.2 0.1 74
2019-06-02 07:00:00 8.3 2 Noroeste 5 Oeste 0 918.1 -0.4 80
2019-06-02 06:00:00 9.2 0 Calma 4 Este 0 918.1 -0.7 76
2019-06-02 05:00:00 10.1 0 Calma 5 Nordeste 0 918.1 -0.8 71
2019-06-02 04:00:00 11.4 2 Norte 5 Nordeste 0 918.5 -0.5 65
2019-06-02 03:00:00 13.6 3 Sudeste 7 Este 0 918.8 -0.3 54
2019-06-02 02:00:00 14.1 3 Sudeste 6 Sudeste 0 918.9 0.1 54
2019-06-02 01:00:00 15.2 2 Este 6 Sudeste 0 919 0.8 50
2019-06-02 00:00:00 16.5 4 Sudeste 8 Sudeste 0 919.1 1.6 49
2019-06-01 23:00:00 18.4 2 Sur 9 Sudeste 0 918.8 2 44
2019-06-01 22:00:00 20.1 4 Sudeste 18 Sudeste 0 918.2 1.7 40
2019-06-01 21:00:00 22.3 5 Sudeste 24 Este 0 917.5 1.1 38
2019-06-01 20:00:00 25.8 6 Este 22 Sudeste 0 916.8 0 33
2019-06-01 19:00:00 27.6 8 Sudeste 26 Sudeste 0 916.5 -0.9 31
2019-06-01 18:00:00 29.9 9 Este 26 Este 0 916.4 -1.5 28
2019-06-01 17:00:00 30.7 6 Nordeste 16 Norte 0 916.8 -1.8 17
2019-06-01 16:00:00 30 5 Este 14 Este 0 917.4 -1.9 19
2019-06-01 15:00:00 29.2 6 Nordeste 17 Nordeste 0 917.9 -1.9 22
2019-06-01 14:00:00 27.8 7 Nordeste 16 Sur 0 918.6 -1.4 26
2019-06-01 13:00:00 26.9 5 Sur 14 Sur 0 919.3 -1.3 27
2019-06-01 12:00:00 25 5 Sudeste 11 Sur 0 919.8 -0.9 33
2019-06-01 11:00:00 21.8 5 Sur 11 Sudeste 0 920 -0.6 40
2019-06-01 10:00:00 18.1 4 Este 8 Este 0 920.6 0.2 53
2019-06-01 09:00:00 14.9 4 Este 8 Nordeste 0 920.7 0.5 62
2019-06-01 08:00:00 10.1 2 Este 5 Nordeste 0 920.6 0.5 82
2019-06-01 07:00:00 8.5 0 Calma 4 Sudoeste 0 920.4 0.1 85
2019-06-01 06:00:00 9 0 Calma 5 Norte 0 920.2 -0.2 83
2019-06-01 05:00:00 10.1 0 Calma 6 Este 0 920.1 -0.6 79
2019-06-01 04:00:00 11.5 3 Este 7 Sur 0 920.3 -0.6 74
2019-06-01 03:00:00 12.8 2 Este 11 Sur 0 920.4 -0.4 69
2019-06-01 02:00:00 13.6 6 Sur 12 Sur 0 920.7 0 66
2019-06-01 01:00:00 14.3 4 Sur 10 Sur 0 920.9 0.8 65
2019-06-01 00:00:00 15.8 5 Sur 12 Sur 0 920.8 1.4 60
2019-05-31 23:00:00 17.3 4 Sur 12 Sur 0 920.7 1.8 55
2019-05-31 22:00:00 19.1 3 Sudeste 17 Este 0 920.1 1.6 51
2019-05-31 21:00:00 21.1 6 Sudeste 25 Sudeste 0 919.4 1 46
2019-05-31 20:00:00 24.9 5 Sudeste 23 Este 0 918.9 0.2 37
2019-05-31 19:00:00 27.2 9 Sudeste 22 Sur 0 918.5 -0.8 30
2019-05-31 18:00:00 29.5 7 Este 18 Este 0 918.4 -1.3 24
2019-05-31 17:00:00 29.3 6 Noroeste 17 Nordeste 0 918.7 -1.5 15
2019-05-31 16:00:00 28.8 7 Nordeste 17 Nordeste 0 919.3 -1.5 17
2019-05-31 15:00:00 27.6 5 Oeste 15 Nordeste 0 919.7 -1.5 16
2019-05-31 14:00:00 27.4 5 Este 15 Sudoeste 0 920.2 -1.3 20
2019-05-31 13:00:00 25.8 6 Sudoeste 11 Oeste 0 920.8 -1.1 21
2019-05-31 12:00:00 23.4 5 Sudoeste 13 Sudoeste 0 921.2 -0.8 31
2019-05-31 11:00:00 20.3 4 Sur 8 Este 0 921.5 -0.6 41
2019-05-31 10:00:00 16.8 4 Este 8 Este 0 921.9 0 51
2019-05-31 09:00:00 12.7 2 Sudeste 7 Este 0 922 0.4 63
2019-05-31 08:00:00 8.2 2 Noroeste 3 Oeste 0 922.1 0.4 79
2019-05-31 07:00:00 6.7 0 Calma 6 Norte 0 921.9 0.1 84
2019-05-31 06:00:00 7 4 Noroeste 7 Noroeste 0 921.6 -0.6 83
2019-05-31 05:00:00 7.5 3 Noroeste 5 Noroeste 0 921.7 -0.6 82
2019-05-31 04:00:00 8.4 0 Calma 4 Oeste 0 921.8 -0.7 81
2019-05-31 03:00:00 9.4 0 Calma 5 Oeste 0 922.2 -0.2 78
2019-05-31 02:00:00 10.8 5 Oeste 7 Oeste 0 922.3 0.2 74
2019-05-31 01:00:00 12.4 4 Oeste 8 Oeste 0 922.5 1.3 71
2019-05-31 00:00:00 14.4 2 Nordeste 6 Oeste 0 922.4 2 64
2019-05-30 23:00:00 17.2 3 Sur 15 Este 0 922.1 2.3 54
2019-05-30 22:00:00 19 5 Sudeste 16 Este 0 921.2 1.8 50
2019-05-30 21:00:00 21.9 5 Este 23 Este 0 920.4 0.8 42
2019-05-30 20:00:00 25.6 8 Nordeste 27 Nordeste 0 919.8 -0.1 26
2019-05-30 19:00:00 27.3 7 Nordeste 22 Este 0 919.4 -0.9 21
2019-05-30 18:00:00 27.6 7 Norte 19 Nordeste 0 919.6 -1.1 21
2019-05-30 17:00:00 27.6 6 Nordeste 17 Noroeste 0 919.9 -1.3 24
2019-05-30 16:00:00 26.6 9 Noroeste 19 Noroeste 0 920.3 -1.2 24
2019-05-30 15:00:00 25.9 10 Oeste 31 Noroeste 0 920.7 -1.3 27
2019-05-30 14:00:00 24.3 5 Nordeste 19 Noroeste 0 921.2 -1.2 30
2019-05-30 13:00:00 22.1 6 Noroeste 14 Oeste 0 921.5 -1.1 34
2019-05-30 12:00:00 19.7 5 Sur 12 Noroeste 0 922 -0.6 42
2019-05-30 11:00:00 16.9 6 Oeste 13 Oeste 0 922.4 0.1 48
2019-05-30 10:00:00 14 4 Sudoeste 6 Sudoeste 0 922.6 0.6 57
2019-05-30 09:00:00 11.1 3 Sur 5 Este 0 922.6 0.9 66
2019-05-30 08:00:00 7.5 0 Calma 5 Norte 0 922.3 0.6 84
2019-05-30 07:00:00 5.5 2 Noroeste 4 Oeste 0 922 0.3 85
2019-05-30 06:00:00 6.2 2 Norte 10 Norte 0 921.7 0 85
2019-05-30 05:00:00 7.1 3 Norte 10 Norte 0 921.7 -0.3 82
2019-05-30 04:00:00 8 3 Nordeste 10 Noroeste 0 921.7 0 78
2019-05-30 03:00:00 8.8 4 Norte 8 Noroeste 0 921.7 0.3 76
2019-05-30 02:00:00 10.1 4 Noroeste 8 Nordeste 0 922 1.4 71
2019-05-30 01:00:00 11.4 4 Nordeste 14 Noroeste 0 921.7 2 65
2019-05-30 00:00:00 12.9 5 Noroeste 23 Nordeste 0 921.4 2.2 58
2019-05-29 23:00:00 14.2 7 Norte 23 Norte 0 920.6 1.8 53
2019-05-29 22:00:00 15 11 Nordeste 22 Nordeste 0 919.7 1.4 53
2019-05-29 21:00:00 17.1 6 Nordeste 28 Noroeste 0 919.2 1 44
2019-05-29 20:00:00 20.2 9 Norte 25 Noroeste 0 918.8 0.5 35
2019-05-29 19:00:00 20.9 9 Norte 33 Nordeste 0 918.3 -0.2 33
2019-05-29 18:00:00 21 14 Norte 34 Noroeste 0 918.2 -0.4 29
2019-05-29 17:00:00 21.5 10 Norte 35 Nordeste 0 918.3 -0.5 27
2019-05-29 16:00:00 20.5 12 Norte 30 Norte 0 918.5 -0.3 28
2019-05-29 15:00:00 20.3 9 Norte 28 Norte 0 918.6 -0.2 31
2019-05-29 14:00:00 18.5 13 Norte 37 Noroeste 0 918.8 0 37
2019-05-29 13:00:00 17.5 15 Norte 29 Norte 0 918.8 -0.5 40
2019-05-29 12:00:00 16.1 13 Noroeste 35 Norte 0 918.8 -1 44
2019-05-29 11:00:00 14.3 16 Norte 41 Noroeste 0 918.8 -0.6 48
2019-05-29 10:00:00 12.3 12 Noroeste 30 Norte 0 919.3 0.3 55
2019-05-29 09:00:00 9.7 9 Noroeste 22 Noroeste 0 919.8 1.5 61
2019-05-29 08:00:00 7.5 5 Noroeste 13 Noroeste 0 919.4 1.2 70
2019-05-29 07:00:00 5.8 5 Noroeste 17 Norte 0 919 0.7 75
2019-05-29 06:00:00 5.8 4 Nordeste 13 Nordeste 0 918.3 0 75
2019-05-29 05:00:00 6.4 6 Noroeste 14 Noroeste 0 918.2 -0.1 72
2019-05-29 04:00:00 6.6 6 Oeste 12 Noroeste 0 918.3 0 75
2019-05-29 03:00:00 7.3 6 Oeste 14 Noroeste 0 918.3 0.6 72
2019-05-29 02:00:00 7.8 5 Noroeste 10 Noroeste 0 918.3 1 70
2019-05-29 01:00:00 8.7 6 Noroeste 20 Noroeste 0 918.3 1.8 66
2019-05-29 00:00:00 9.7 9 Norte 24 Norte 0 917.7 2.3 63
2019-05-28 23:00:00 11 8 Nordeste 22 Norte 0 917.3 2.6 59
2019-05-28 22:00:00 12.4 8 Nordeste 30 Nordeste 0 916.5 2.7 57
2019-05-28 21:00:00 14.4 9 Nordeste 31 Nordeste 0 915.4 2.3 51
2019-05-28 20:00:00 17.5 12 Nordeste 33 Norte 0 914.7 1.6 42
2019-05-28 19:00:00 19.8 14 Norte 31 Noroeste 0 913.8 0.7 37
2019-05-28 18:00:00 21.2 12 Norte 29 Noroeste 0 913.1 0 30
2019-05-28 17:00:00 21.2 10 Norte 29 Noroeste 0 913.1 -0.4 30
2019-05-28 16:00:00 21.1 11 Norte 30 Noroeste 0 913.1 -0.9 28
2019-05-28 15:00:00 20.3 15 Noroeste 25 Noroeste 0 913.1 -0.9 28
2019-05-28 14:00:00 18.9 13 Noroeste 28 Noroeste 0 913.5 -0.4 30
2019-05-28 13:00:00 17.7 11 Norte 27 Noroeste 0 914 -0.4 37
2019-05-28 12:00:00 16.2 11 Noroeste 21 Oeste 0 914 0.1 46
2019-05-28 11:00:00 14.5 8 Norte 22 Nordeste 0 913.9 0.4 49
2019-05-28 10:00:00 13.1 9 Nordeste 23 Nordeste 0 914.4 1.2 59
2019-05-28 09:00:00 11.7 8 Nordeste 17 Nordeste 0 913.9 1.4 65
2019-05-28 08:00:00 9.6 5 Norte 14 Noroeste 0 913.5 1.1 77
2019-05-28 07:00:00 9.2 3 Norte 7 Norte 0 913.2 0.7 82
2019-05-28 06:00:00 9.7 3 Nordeste 6 Norte 0 912.5 -0.4 80
2019-05-28 05:00:00 9.5 0 Calma 8 Noroeste 0 912.4 -0.7 82
2019-05-28 04:00:00 9.8 3 Nordeste 13 Noroeste 0 912.5 -0.8 80
2019-05-28 03:00:00 11.4 7 Noroeste 14 Noroeste 0 912.9 -0.4 74
2019-05-28 02:00:00 12.7 6 Noroeste 17 Noroeste 0 913.1 0.1 74
2019-05-28 01:00:00 12.5 5 Noroeste 13 Noroeste 0 913.3 1.3 75
2019-05-28 00:00:00 13.6 6 Noroeste 17 Noroeste 0 913.3 2.4 70
2019-05-27 23:00:00 14.6 6 Noroeste 16 Norte 0 913 2.9 65
2019-05-27 22:00:00 16.4 6 Nordeste 22 Nordeste 0 912 2.5 59
2019-05-27 21:00:00 18.3 12 Nordeste 30 Nordeste 0 910.9 1.5 51
2019-05-27 20:00:00 21.5 14 Nordeste 29 Nordeste 0 910.1 0.4 44
2019-05-27 19:00:00 23.8 11 Nordeste 27 Nordeste 0 909.5 -0.6 36
2019-05-27 18:00:00 23.7 10 Nordeste 31 Norte 0 909.4 -1.3 35
2019-05-27 17:00:00 25.1 10 Nordeste 29 Nordeste 0 909.7 -1.2 28
2019-05-27 16:00:00 24.7 12 Norte 32 Noroeste 0 910.1 -1.4 29
2019-05-27 15:00:00 24.3 13 Noroeste 27 Noroeste 0 910.7 -1.3 30
2019-05-27 14:00:00 23.9 11 Noroeste 24 Norte 0 910.9 -1.5 32
2019-05-27 13:00:00 21.7 7 Norte 22 Norte 0 911.5 -1.3 38
2019-05-27 12:00:00 19.7 7 Norte 14 Nordeste 0 912 -1.1 45
2019-05-27 11:00:00 17.1 5 Nordeste 9 Este 0 912.4 -0.7 55
2019-05-27 10:00:00 13.5 4 Oeste 7 Oeste 0 912.8 0 67
2019-05-27 09:00:00 10.4 3 Nordeste 7 Este 0 913.1 0.2 76
2019-05-27 08:00:00 6.3 0 Calma 7 Oeste 0 913.1 0 91
2019-05-27 07:00:00 4.8 0 Calma 8 Nordeste 0 912.8 -0.8 91
2019-05-27 06:00:00 5 4 Norte 9 Nordeste 0 912.9 -1.1 92
2019-05-27 05:00:00 5.9 3 Norte 6 Oeste 0 913.1 -1.2 88
2019-05-27 04:00:00 6.9 4 Noroeste 6 Noroeste 0 913.6 -1 85
2019-05-27 03:00:00 7.9 2 Noroeste 6 Sur 0 914 -0.9 83
2019-05-27 02:00:00 9 3 Nordeste 8 Noroeste 0 914.3 -0.6 81
2019-05-27 01:00:00 10.6 7 Noroeste 17 Noroeste 0 914.6 0.4 75
2019-05-27 00:00:00 11.6 6 Oeste 13 Noroeste 0 914.9 1.1 70
2019-05-26 23:00:00 12.9 3 Sudoeste 18 Norte 0 914.9 1.2 64
2019-05-26 22:00:00 14.3 4 Este 17 Nordeste 0 914.2 0.5 60
2019-05-26 21:00:00 16.2 9 Nordeste 29 Norte 0 913.8 -0.2 53
2019-05-26 20:00:00 19.2 9 Nordeste 23 Nordeste 0 913.7 -0.7 43
2019-05-26 19:00:00 20.3 8 Norte 27 Nordeste 0 913.7 -1 38
2019-05-26 18:00:00 20.4 9 Nordeste 26 Nordeste 0 914 -0.9 37
2019-05-26 17:00:00 20.5 9 Nordeste 26 Nordeste 0 914.4 -0.9 38
2019-05-26 16:00:00 19.9 9 Nordeste 29 Nordeste 0 914.7 -1.3 43
2019-05-26 15:00:00 19.2 12 Nordeste 28 Nordeste 0 914.9 -1.3 43
2019-05-26 14:00:00 17.4 10 Norte 25 Norte 0 915.3 -1.1 48
2019-05-26 13:00:00 14.9 12 Norte 28 Norte 0 916 -0.6 55
2019-05-26 12:00:00 13.4 8 Norte 21 Noroeste 0 916.2 -0.4 62
2019-05-26 11:00:00 11.1 8 Noroeste 24 Norte 0 916.4 -0.4 66
2019-05-26 10:00:00 9.8 9 Norte 27 Noroeste 0 916.6 -0.1 70
2019-05-26 09:00:00 9.4 9 Nordeste 25 Nordeste 0 916.6 0.2 71
2019-05-26 08:00:00 9 7 Nordeste 19 Norte 0 916.8 0.2 73
2019-05-26 07:00:00 8.1 5 Norte 17 Norte 0 916.7 -0.1 78
2019-05-26 06:00:00 8.5 9 Noroeste 18 Oeste 0 916.4 -0.7 78
2019-05-26 05:00:00 8.2 7 Noroeste 19 Norte 0 916.6 -0.6 80
2019-05-26 04:00:00 7.8 9 Noroeste 20 Noroeste 0 916.8 -0.8 81
2019-05-26 03:00:00 8.6 9 Noroeste 28 Noroeste 0 917.1 -0.5 79
2019-05-26 02:00:00 9.3 9 Noroeste 25 Nordeste 0 917.2 -0.1 77
2019-05-26 01:00:00 9.7 8 Noroeste 16 Noroeste 0 917.6 1.3 79
2019-05-26 00:00:00 10.6 6 Oeste 15 Oeste 0 917.6 1.9 77
2019-05-25 23:00:00 12.1 4 Noroeste 12 Noroeste 0 917.3 2.1 72
2019-05-25 22:00:00 13.5 4 Nordeste 22 Nordeste 0 916.3 1.4 66
2019-05-25 21:00:00 15.5 5 Norte 19 Norte 0 915.7 0.6 58
2019-05-25 20:00:00 18.3 8 Norte 21 Norte 0 915.2 -0.1 48
2019-05-25 19:00:00 18.5 9 Nordeste 24 Noroeste 0 914.9 -0.6 49
2019-05-25 18:00:00 18.5 9 Nordeste 24 Norte 0 915.1 -0.6 50
2019-05-25 17:00:00 17.4 8 Norte 25 Nordeste 0 915.3 -0.9 55
2019-05-25 16:00:00 16.9 9 Norte 24 Noroeste 0 915.5 -0.6 55
2019-05-25 15:00:00 16.7 8 Norte 25 Noroeste 0 915.7 -0.3 56
2019-05-25 14:00:00 15.1 9 Norte 25 Noroeste 0 916.2 0.2 59
2019-05-25 13:00:00 15.1 11 Norte 27 Norte 0 916.1 0.4 60
2019-05-25 12:00:00 13.7 10 Norte 28 Noroeste 0 916 0.8 64
2019-05-25 11:00:00 12 10 Norte 28 Noroeste 0 916 1.2 69
2019-05-25 10:00:00 11.4 9 Norte 28 Noroeste 0 915.7 1.2 72
2019-05-25 09:00:00 10.4 9 Norte 30 Norte 0 915.2 1 75
2019-05-25 08:00:00 10.2 6 Norte 23 Norte 0 914.8 0.6 76
2019-05-25 07:00:00 10 8 Noroeste 23 Noroeste 0 914.5 0.2 77
2019-05-25 06:00:00 10.1 8 Noroeste 23 Norte 0 914.2 0 77
2019-05-25 05:00:00 10.3 8 Norte 25 Norte 0 914.2 -0.1 77
2019-05-25 04:00:00 10.5 11 Norte 24 Noroeste 0 914.3 -0.2 78
2019-05-25 03:00:00 10.8 9 Noroeste 25 Norte 0 914.2 -0.4 79
2019-05-25 02:00:00 10.9 9 Norte 21 Nordeste 0 914.3 -0.1 77
2019-05-25 01:00:00 11.1 5 Nordeste 22 Noroeste 0 914.5 0.7 77
2019-05-25 00:00:00 11.3 8 Noroeste 23 Norte 0 914.6 1.3 75
2019-05-24 23:00:00 11.4 9 Noroeste 24 Noroeste 0 914.4 1.5 73
2019-05-24 22:00:00 12.1 8 Noroeste 25 Noroeste 0 913.8 0.9 72
2019-05-24 21:00:00 12.8 8 Norte 28 Nordeste 0 913.3 0.2 70
2019-05-24 20:00:00 13.6 9 Nordeste 26 Nordeste 0 912.9 -0.2 69
2019-05-24 19:00:00 14 8 Nordeste 23 Este 0 912.9 -0.4 69
2019-05-24 18:00:00 13.3 9 Norte 27 Norte 0 913.1 -0.5 70
2019-05-24 17:00:00 13.9 10 Norte 26 Noroeste 0 913.1 -0.5 70
2019-05-24 16:00:00 13 9 Nordeste 25 Nordeste 0 913.3 -0.1 78
2019-05-24 15:00:00 12.9 8 Nordeste 29 Noroeste 0.4 913.6 -0.5 77
2019-05-24 14:00:00 14 7 Noroeste 24 Norte 0 913.6 0.2 73
2019-05-24 13:00:00 13.6 12 Norte 24 Noroeste 2.8 913.4 0.5 81
2019-05-24 12:00:00 11.4 6 Oeste 23 Norte 0 914.1 1.1 91
2019-05-24 11:00:00 11.6 8 Norte 19 Noroeste 0 913.4 1 84
2019-05-24 10:00:00 12.2 5 Nordeste 14 Oeste 0 912.9 0.7 85
2019-05-24 09:00:00 11.2 10 Oeste 23 Oeste 0.2 913 1.1 92
2019-05-24 08:00:00 11.6 9 Noroeste 23 Noroeste 0 912.4 0.6 89
2019-05-24 07:00:00 11.4 10 Noroeste 19 Oeste 0 912.2 0.6 88
2019-05-24 06:00:00 11.7 10 Oeste 17 Oeste 0 911.9 -0.1 90
2019-05-24 05:00:00 12.4 4 Oeste 7 Norte 0 911.8 -1 90
2019-05-24 04:00:00 13.1 3 Norte 9 Nordeste 0 911.6 -2.6 90
2019-05-24 03:00:00 13.9 6 Oeste 15 Sur 0.2 912 -0.9 85
2019-05-24 02:00:00 14.8 4 Sudeste 24 Noroeste 0.2 912.8 -0.3 81
2019-05-24 01:00:00 15.9 10 Noroeste 29 Noroeste 0 914.2 1.7 72
2019-05-24 00:00:00 17.4 4 Noroeste 18 Este 0 912.9 0.7 69
2019-05-23 23:00:00 18.4 10 Nordeste 23 Nordeste 0 913.1 0.8 66
2019-05-23 22:00:00 19.2 2 Nordeste 6 Sur 0 912.5 0 47
2019-05-23 21:00:00 23.2 6 Sur 13 Sur 0 912.2 -0.7 35
2019-05-23 20:00:00 24.6 5 Sudoeste 15 Oeste 0 912.3 -1 30
2019-05-23 19:00:00 25.6 9 Sudoeste 18 Oeste 0 912.5 -1.2 27
2019-05-23 18:00:00 26.2 5 Sudoeste 13 Oeste 0 912.9 -1 26
2019-05-23 17:00:00 24.7 6 Oeste 26 Oeste 0 913.3 -1.1 29
2019-05-23 16:00:00 24.7 8 Oeste 18 Norte 0 913.7 -1.1 28
2019-05-23 15:00:00 24.5 8 Noroeste 16 Oeste 0 913.9 -1.4 27
2019-05-23 14:00:00 24.9 7 Sur 15 Sur 0 914.4 -1.3 34
2019-05-23 13:00:00 22.4 5 Sudeste 16 Sur 0 914.8 -1.1 45
2019-05-23 12:00:00 20.6 5 Sur 12 Sur 0 915.3 -0.6 51
2019-05-23 11:00:00 17.6 4 Oeste 10 Oeste 0 915.7 -0.1 62
2019-05-23 10:00:00 14.6 4 Nordeste 11 Oeste 0 915.9 0.4 76
2019-05-23 09:00:00 12.4 2 Sudeste 6 Sudoeste 0 915.9 0.4 83
2019-05-23 08:00:00 9.8 3 Norte 8 Oeste 0 915.8 0.3 93
2019-05-23 07:00:00 8.4 2 Oeste 5 Oeste 0 915.5 -0.1 93
2019-05-23 06:00:00 9.1 0 Calma 3 Oeste 0 915.5 -0.4 88
2019-05-23 05:00:00 9.9 0 Calma 3 Oeste 0 915.5 -0.7 88
2019-05-23 04:00:00 11 0 Calma 5 Norte 0 915.6 -0.6 87
2019-05-23 03:00:00 12.5 2 Oeste 5 Este 0 915.9 -0.2 84
2019-05-23 02:00:00 13.4 2 Sudeste 5 Sudeste 0 916.2 0.2 82
2019-05-23 01:00:00 13.9 3 Sudeste 6 Sur 0 916.2 1 80
2019-05-23 00:00:00 15.1 3 Este 6 Sur 0 916.1 1.6 76
2019-05-22 23:00:00 16.4 3 Sudeste 14 Este 0 916 2.1 71
2019-05-22 22:00:00 17.6 4 Sudeste 15 Sudeste 0 915.2 1.6 68
2019-05-22 21:00:00 19.6 6 Este 23 Este 0 914.5 0.8 61
2019-05-22 20:00:00 22.3 8 Este 24 Este 0 913.9 0 50
2019-05-22 19:00:00 25.7 4 Nordeste 16 Oeste 0 913.6 -0.5 26
2019-05-22 18:00:00 25.4 6 Oeste 15 Noroeste 0 913.7 -0.8 28
2019-05-22 17:00:00 25.1 7 Oeste 19 Oeste 0 913.9 -1 30
2019-05-22 16:00:00 25.5 7 Sudoeste 15 Oeste 0 914.1 -1.1 28
2019-05-22 15:00:00 24.9 4 Sur 14 Nordeste 0 914.5 -1 31
2019-05-22 14:00:00 23.8 8 Sur 17 Sur 0 914.9 -0.8 33
2019-05-22 13:00:00 22.6 5 Norte 16 Sur 0 915.2 -0.7 32
2019-05-22 12:00:00 20.9 5 Sudeste 17 Sur 0 915.5 -0.5 41
2019-05-22 11:00:00 17.4 4 Este 9 Este 0 915.7 -0.2 53
2019-05-22 10:00:00 13.4 3 Este 9 Nordeste 0 915.9 0.4 66
2019-05-22 09:00:00 9.2 4 Norte 8 Noroeste 0 916 0.6 81
2019-05-22 08:00:00 5.5 2 Norte 4 Oeste 0 915.9 0.4 94
2019-05-22 07:00:00 3.8 3 Noroeste 5 Oeste 0 915.5 0.1 92
2019-05-22 06:00:00 4.9 3 Noroeste 6 Norte 0 915.4 -0.1 91
2019-05-22 05:00:00 5.3 3 Noroeste 4 Oeste 0 915.5 -0.1 90
2019-05-22 04:00:00 6.4 2 Noroeste 9 Noroeste 0 915.4 -0.4 91
2019-05-22 03:00:00 6.3 5 Oeste 8 Oeste 0 915.5 0 90
2019-05-22 02:00:00 7.1 2 Oeste 5 Oeste 0 915.6 0.4 87
2019-05-22 01:00:00 8.1 0 Calma 5 Oeste 0 915.8 1.4 86
2019-05-22 00:00:00 9.2 3 Oeste 7 Oeste 0 915.5 1.6 81